Nearby METAR Reports

 

EGNX - East Midlands, United Kingdom
Distance from station: SW 12mi, 19km
Updated: 17/06/2024 16:50
Partly cloudy
Partly cloudy
 Wind from NW
Wind: NW 15 km/h
Temperature: 17°C
Dew Point: 10°C
Humidity: 64%
Barometer: 1011 hPa
Clouds: Partly cloudy
Visibility: 10 km
Cloud details: Partly cloudy 914 m
2024/06/17 15:50 EGNX 171550Z 32008KT 9999 SCT030 17/10 Q1011
EGYE - Barkston Heath R, United Kingdom
Distance from station: E 24mi, 39km
Updated: 17/06/2024 16:50
Clear
Clear
 Wind from W
Wind: W 17 km/h
Temperature: 18°C
Dew Point: 9°C
Humidity: 56%
Barometer: 1010 hPa
Summary: Clear
Visibility: greater than 10 km
2024/06/17 15:50 EGYE 171550Z 26009KT CAVOK 18/09 Q1010 RMK BLU
 
EGYD - Cranwell Raf, United Kingdom
Distance from station: ENE 28mi, 44km
Updated: 17/06/2024 16:50
Mostly cloudy
Mostly cloudy
 Wind from W
Wind: W 19 km/h
Temperature: 18°C
Dew Point: 11°C
Humidity: 64%
Barometer: 1010 hPa
Clouds: Mostly cloudy
Visibility: 10 km
Cloud details: Few Clouds 1158 m
Mostly cloudy 1707 m
2024/06/17 15:50 EGYD 171550Z 26010KT 9999 FEW038 BKN056 18/11 Q1010 NOSIG RMK BLU BLU
EGXW - Waddington Raf, United Kingdom
Distance from station: ENE 31mi, 50km
Updated: 17/06/2024 16:50
Mostly cloudy
Mostly cloudy
 Wind from W
Wind: W 15 km/h
Temperature: 18°C
Dew Point: 8°C
Humidity: 52%
Barometer: 1010 hPa
Clouds: Mostly cloudy
Visibility: 10 km
Cloud details: Few Clouds 1097 m
Mostly cloudy 1829 m
2024/06/17 15:50 EGXW 171550Z 27008KT 9999 FEW036 BKN060 18/08 Q1010 NOSIG RMK BLU BLU
 
EGSY - Yorkshire/Humber, United Kingdom
Distance from station: NNW 33mi, 52km
Updated: 17/06/2024 16:50
Few Clouds
Few Clouds
 Wind from W
Wind: W 20 km/h
Temperature: 18°C
Dew Point: 9°C
Humidity: 56%
Barometer: 1012 hPa
Clouds: Few Clouds
Visibility: 10 km
Cloud details: Few Clouds 1219 m
2024/06/17 15:50 EGSY 171550Z 27011KT 9999 FEW040 18/09 Q1012
EGXP - Scampton Raf, United Kingdom
Distance from station: NE 35mi, 56km
Updated: 01/11/2022 10:50
NOT Current

 Wind from SW
Wind: SW 35 km/h
Temperature: 14°C
Dew Point: 10°C
Humidity: 77%
Barometer: 1001 hPa
2022/11/01 10:50 EGXP 011050Z AUTO 22019KT //// // ///////// 14/10 Q1001
 
EGXT - Wittering Raf, United Kingdom
Distance from station: SE 37mi, 59km
Updated: 17/06/2024 16:50
Overcast
Overcast
 Wind from W
Wind: W 20 km/h
Temperature: 17°C
Dew Point: 12°C
Humidity: 73%
Barometer: 1010 hPa
Clouds: Overcast
Visibility: 10 km
Cloud details: Few Clouds 640 m
Overcast 2591 m
2024/06/17 15:50 EGXT 171550Z AUTO 28011KT 9999 // FEW021/// OVC085/// 17/12 Q1010
EGCN - Doncaster Sheffi, United Kingdom
Distance from station: N 37mi, 60km
Updated: 30/11/2022 17:50
NOT Current
Haze, Overcast
Haze, Overcast
 Wind from ESE
Wind: ESE 6 km/h
Temperature: 6°C
Dew Point: 5°C
Humidity: 93%
Barometer: 1028 hPa
Summary: Haze
Clouds: Overcast
Visibility: 5 km
Cloud details: Few Clouds 183 m
Overcast 610 m
2022/11/30 17:50 EGCN 301750Z 12003KT 5000 HZ FEW006 OVC020 06/05 Q1028
 
EGBB - Birmingham Airpo, United Kingdom
Distance from station: SW 42mi, 67km
Updated: 17/06/2024 16:50
Nearby showers, Mostly cloudy
Nearby showers, Mostly cloudy
 Wind from W
Wind: W 11 km/h
Temperature: 19°C
Dew Point: 11°C
Humidity: 60%
Barometer: 1011 hPa
Summary: Nearby Showers
Clouds: Mostly cloudy
Visibility: 10 km
Cloud details: Mostly cloudy 1128 m
2024/06/17 15:50 EGBB 171550Z 27006KT 220V310 9999 VCSH BKN037CB 19/11 Q1011
EGXC - Coningsby Raf, United Kingdom
Distance from station: ENE 42mi, 68km
Updated: 17/06/2024 16:50
Mostly cloudy
Mostly cloudy
 Wind from W
Wind: W 17 km/h
Temperature: 19°C
Dew Point: 10°C
Humidity: 56%
Barometer: 1010 hPa
Clouds: Mostly cloudy
Visibility: 10 km
Cloud details: Few Clouds 1067 m
Mostly cloudy 1676 m
2024/06/17 15:50 EGXC 171550Z 27009KT 9999 FEW035 BKN055 19/10 Q1010 NOSIG RMK BLU BLU